createdAt,value
2018-06-29T00:00:49.456Z,0
2018-06-29T00:01:57.537Z,0
2018-06-29T00:03:05.585Z,0
2018-06-29T00:04:13.656Z,0
2018-06-29T00:05:21.728Z,0
2018-06-29T00:06:29.780Z,0
2018-06-29T00:07:37.846Z,0
2018-06-29T00:08:45.915Z,0
2018-06-29T00:09:53.975Z,0
2018-06-29T00:11:02.054Z,0
2018-06-29T00:12:10.107Z,0
2018-06-29T00:13:18.168Z,0
2018-06-29T00:14:26.237Z,0
2018-06-29T00:15:34.317Z,0
2018-06-29T00:16:42.518Z,0
2018-06-29T00:17:50.442Z,0
2018-06-29T00:18:58.517Z,0
2018-06-29T00:20:06.580Z,0
2018-06-29T00:21:14.631Z,0
2018-06-29T00:22:22.715Z,0
2018-06-29T00:23:30.782Z,0
2018-06-29T00:24:38.838Z,0
2018-06-29T00:25:46.885Z,0
2018-06-29T00:26:54.950Z,0
2018-06-29T00:28:03.035Z,0
2018-06-29T00:29:11.092Z,0
2018-06-29T00:30:19.174Z,0
2018-06-29T00:31:27.211Z,0
2018-06-29T00:32:35.297Z,0
2018-06-29T00:33:43.381Z,0
2018-06-29T00:34:51.426Z,0
2018-06-29T00:35:59.493Z,0
2018-06-29T00:37:07.526Z,0
2018-06-29T00:38:15.617Z,0
2018-06-29T00:39:23.678Z,0
2018-06-29T00:40:31.737Z,0
2018-06-29T00:41:39.826Z,0
2018-06-29T00:42:47.893Z,0
2018-06-29T00:43:55.947Z,0
2018-06-29T00:45:04.005Z,0
2018-06-29T00:46:12.073Z,0
2018-06-29T00:47:20.140Z,0
2018-06-29T00:48:28.210Z,0
2018-06-29T00:49:36.275Z,0
2018-06-29T00:50:44.331Z,0
2018-06-29T00:51:52.412Z,0
2018-06-29T00:53:00.471Z,0
2018-06-29T00:54:08.546Z,0
2018-06-29T00:55:16.610Z,0
2018-06-29T00:56:24.677Z,0
2018-06-29T00:57:32.737Z,0
2018-06-29T00:58:40.795Z,0
2018-06-29T00:59:48.869Z,0
2018-06-29T01:00:56.915Z,0
2018-06-29T01:02:05.000Z,0
2018-06-29T01:03:13.064Z,0
2018-06-29T01:04:21.134Z,0
2018-06-29T01:05:29.212Z,0
2018-06-29T01:06:37.241Z,0
2018-06-29T01:07:45.327Z,0
2018-06-29T01:08:53.402Z,0
2018-06-29T01:10:01.463Z,0
2018-06-29T01:11:09.523Z,0
2018-06-29T01:12:17.573Z,0
2018-06-29T01:13:25.659Z,0
2018-06-29T01:14:33.725Z,0
2018-06-29T01:15:41.787Z,0
2018-06-29T01:16:49.860Z,0
2018-06-29T01:17:57.928Z,0
2018-06-29T01:19:05.998Z,0
2018-06-29T01:20:14.046Z,0
2018-06-29T01:21:22.125Z,0
2018-06-29T01:22:30.180Z,0
2018-06-29T01:23:38.257Z,0
2018-06-29T01:24:46.321Z,0
2018-06-29T01:25:54.380Z,0
2018-06-29T01:27:02.459Z,0
2018-06-29T01:28:10.512Z,0
2018-06-29T01:29:18.589Z,0
2018-06-29T01:30:26.652Z,0
2018-06-29T01:31:34.719Z,0
2018-06-29T01:32:42.784Z,0
2018-06-29T01:33:50.850Z,0
2018-06-29T01:34:58.962Z,0
2018-06-29T01:36:07.009Z,0
2018-06-29T01:37:15.051Z,0
2018-06-29T01:38:23.114Z,0
2018-06-29T01:39:31.173Z,0
2018-06-29T01:40:39.247Z,0
2018-06-29T01:41:47.292Z,0
2018-06-29T01:42:55.369Z,0
2018-06-29T01:44:03.417Z,0
2018-06-29T01:45:11.501Z,0
2018-06-29T01:46:19.574Z,0
2018-06-29T01:47:27.720Z,0
2018-06-29T01:48:35.710Z,0
2018-06-29T01:49:43.758Z,0
2018-06-29T01:50:51.846Z,0
2018-06-29T01:51:59.901Z,0
2018-06-29T01:53:07.954Z,0
2018-06-29T01:54:16.035Z,0
2018-06-29T01:55:24.104Z,0
2018-06-29T01:56:32.198Z,0
2018-06-29T01:57:40.231Z,0
2018-06-29T01:58:48.299Z,0
2018-06-29T01:59:56.362Z,0
2018-06-29T02:01:04.423Z,0
2018-06-29T02:02:12.491Z,0
2018-06-29T02:03:20.561Z,0
2018-06-29T02:04:28.634Z,0
2018-06-29T02:05:36.680Z,0
2018-06-29T02:06:44.754Z,0
2018-06-29T02:07:52.829Z,0
2018-06-29T02:09:00.891Z,0
2018-06-29T02:10:08.941Z,0
2018-06-29T02:11:16.990Z,0
2018-06-29T02:12:25.075Z,0
2018-06-29T02:13:33.140Z,0
2018-06-29T02:14:41.210Z,0
2018-06-29T02:15:49.274Z,0
2018-06-29T02:16:57.316Z,0
2018-06-29T02:18:05.419Z,0
2018-06-29T02:19:13.473Z,0
2018-06-29T02:20:21.550Z,0
2018-06-29T02:21:29.605Z,0
2018-06-29T02:22:37.700Z,0
2018-06-29T02:23:45.729Z,0
2018-06-29T02:24:53.803Z,0
2018-06-29T02:26:01.869Z,0
2018-06-29T02:27:09.946Z,0
2018-06-29T02:28:17.995Z,0
2018-06-29T02:29:26.062Z,0
2018-06-29T02:30:34.137Z,0
2018-06-29T02:31:42.198Z,0
2018-06-29T02:32:50.267Z,0
2018-06-29T02:33:58.316Z,0
2018-06-29T02:35:06.394Z,0
2018-06-29T02:36:14.456Z,0
2018-06-29T02:37:22.514Z,0
2018-06-29T02:38:30.609Z,0
2018-06-29T02:39:38.654Z,0
2018-06-29T02:40:46.726Z,0
2018-06-29T02:41:54.779Z,0
2018-06-29T02:43:02.843Z,0
2018-06-29T02:44:10.908Z,0
2018-06-29T02:45:19.197Z,0
2018-06-29T02:46:27.017Z,0
2018-06-29T02:47:35.119Z,0
2018-06-29T02:48:43.194Z,0
2018-06-29T02:49:51.256Z,0
2018-06-29T02:50:59.309Z,0
2018-06-29T02:52:07.342Z,0
2018-06-29T02:53:15.445Z,0
2018-06-29T02:54:23.504Z,0
2018-06-29T02:55:31.569Z,0
2018-06-29T02:56:39.633Z,0
2018-06-29T02:57:47.692Z,0
2018-06-29T02:58:55.777Z,0
2018-06-29T03:00:03.848Z,0
2018-06-29T03:01:11.909Z,0
2018-06-29T03:02:19.978Z,0
2018-06-29T03:03:28.053Z,0
2018-06-29T03:04:36.119Z,0
2018-06-29T03:05:44.178Z,0
2018-06-29T03:06:52.252Z,0
2018-06-29T03:08:00.326Z,0
2018-06-29T03:09:08.384Z,0
2018-06-29T03:10:16.447Z,0
2018-06-29T03:11:24.523Z,0
2018-06-29T03:12:32.593Z,0
2018-06-29T03:13:40.656Z,0
2018-06-29T03:14:48.719Z,0
2018-06-29T03:15:56.767Z,0
2018-06-29T03:17:04.866Z,0
2018-06-29T03:18:12.929Z,0
2018-06-29T03:19:20.986Z,0
2018-06-29T03:20:29.070Z,0
2018-06-29T03:21:37.109Z,0
2018-06-29T03:22:45.191Z,0
2018-06-29T03:23:53.252Z,0
2018-06-29T03:25:01.331Z,0
2018-06-29T03:26:09.390Z,0
2018-06-29T03:27:17.432Z,0
2018-06-29T03:28:25.519Z,0
2018-06-29T03:29:33.600Z,0
2018-06-29T03:30:41.677Z,0
2018-06-29T03:31:49.724Z,0
2018-06-29T03:32:57.807Z,0
2018-06-29T03:34:05.856Z,0
2018-06-29T03:35:13.932Z,0
2018-06-29T03:36:21.981Z,0
2018-06-29T03:37:30.046Z,0
2018-06-29T03:38:38.125Z,0
2018-06-29T03:39:46.181Z,0
2018-06-29T03:40:54.258Z,0
2018-06-29T03:42:02.315Z,5
2018-06-29T03:43:10.388Z,5
2018-06-29T03:44:18.456Z,5
2018-06-29T03:45:26.508Z,0
2018-06-29T03:46:34.583Z,5
2018-06-29T03:47:42.659Z,5
2018-06-29T03:48:50.732Z,5
2018-06-29T03:49:58.787Z,5
2018-06-29T03:51:06.835Z,5
2018-06-29T03:52:14.920Z,10
2018-06-29T03:53:22.986Z,10
2018-06-29T03:54:31.063Z,10
2018-06-29T03:55:39.121Z,10
2018-06-29T03:56:47.842Z,15
2018-06-29T03:57:55.262Z,15
2018-06-29T03:59:03.305Z,15
2018-06-29T04:00:11.384Z,15
2018-06-29T04:01:19.450Z,15
2018-06-29T04:02:27.536Z,15
2018-06-29T04:03:35.595Z,15
2018-06-29T04:04:43.645Z,15
2018-06-29T04:05:51.707Z,15
2018-06-29T04:06:59.773Z,15
2018-06-29T04:08:08.230Z,20
2018-06-29T04:09:15.911Z,20
2018-06-29T04:10:25.581Z,20
2018-06-29T04:11:33.646Z,20
2018-06-29T04:12:41.709Z,25
2018-06-29T04:13:49.777Z,25
2018-06-29T04:14:57.833Z,25
2018-06-29T04:16:05.913Z,25
2018-06-29T04:17:13.971Z,25
2018-06-29T04:18:22.041Z,25
2018-06-29T04:19:30.209Z,30
2018-06-29T04:20:38.184Z,25
2018-06-29T04:21:48.724Z,25
2018-06-29T04:22:56.520Z,20
2018-06-29T04:24:04.590Z,20
2018-06-29T04:25:12.664Z,20
2018-06-29T04:26:20.735Z,20
2018-06-29T04:27:28.786Z,20
2018-06-29T04:28:36.831Z,20
2018-06-29T04:29:44.934Z,20
2018-06-29T04:30:57.276Z,20
2018-06-29T04:32:01.066Z,25
2018-06-29T04:33:09.115Z,25
2018-06-29T04:34:17.165Z,25
2018-06-29T04:35:25.255Z,30
2018-06-29T04:36:34.397Z,45
2018-06-29T04:37:42.379Z,45
2018-06-29T04:38:50.456Z,50
2018-06-29T04:39:58.519Z,60
2018-06-29T04:41:06.588Z,55
2018-06-29T04:42:14.643Z,55
2018-06-29T04:43:22.716Z,60
2018-06-29T04:44:30.788Z,60
2018-06-29T04:45:39.290Z,45
2018-06-29T04:46:46.889Z,50
2018-06-29T04:47:54.979Z,60
2018-06-29T04:49:03.039Z,70
2018-06-29T04:50:11.111Z,70
2018-06-29T04:51:19.175Z,60
2018-06-29T04:52:27.262Z,75
2018-06-29T04:53:35.313Z,70
2018-06-29T04:54:43.382Z,90
2018-06-29T04:55:53.429Z,95
2018-06-29T04:56:59.515Z,80
2018-06-29T04:58:07.542Z,90
2018-06-29T04:59:15.638Z,110
2018-06-29T05:00:23.712Z,105
2018-06-29T05:01:31.784Z,115
2018-06-29T05:02:39.831Z,110
2018-06-29T05:03:47.903Z,115
2018-06-29T05:04:55.968Z,125
2018-06-29T05:06:04.041Z,115
2018-06-29T05:07:12.099Z,115
2018-06-29T05:08:20.173Z,125
2018-06-29T05:09:28.240Z,120
2018-06-29T05:10:36.305Z,110
2018-06-29T05:11:44.379Z,115
2018-06-29T05:12:52.455Z,115
2018-06-29T05:14:00.519Z,100
2018-06-29T05:15:08.594Z,100
2018-06-29T05:16:16.647Z,100
2018-06-29T05:17:24.716Z,95
2018-06-29T05:18:32.784Z,120
2018-06-29T05:19:40.862Z,95
2018-06-29T05:20:48.996Z,85
2018-06-29T05:21:56.993Z,105
2018-06-29T05:23:05.043Z,120
2018-06-29T05:24:13.180Z,105
2018-06-29T05:25:21.191Z,110
2018-06-29T05:26:29.270Z,100
2018-06-29T05:27:37.292Z,105
2018-06-29T05:28:45.401Z,115
2018-06-29T05:29:53.439Z,115
2018-06-29T05:31:01.502Z,110
2018-06-29T05:32:09.586Z,90
2018-06-29T05:33:17.631Z,75
2018-06-29T05:34:25.721Z,85
2018-06-29T05:35:33.776Z,100
2018-06-29T05:36:41.839Z,140
2018-06-29T05:37:49.906Z,150
2018-06-29T05:38:57.973Z,135
2018-06-29T05:40:06.041Z,115
2018-06-29T05:41:14.114Z,115
2018-06-29T05:42:22.190Z,155
2018-06-29T05:43:30.857Z,150
2018-06-29T05:44:39.787Z,125
2018-06-29T05:45:47.771Z,145
2018-06-29T05:46:55.892Z,140
2018-06-29T05:48:03.905Z,130
2018-06-29T05:49:12.000Z,140
2018-06-29T05:50:20.050Z,125
2018-06-29T05:51:28.134Z,130
2018-06-29T05:52:36.190Z,135
2018-06-29T05:53:44.253Z,140
2018-06-29T05:54:52.316Z,145
2018-06-29T05:56:00.404Z,135
2018-06-29T05:57:08.454Z,135
2018-06-29T05:58:16.512Z,145
2018-06-29T05:59:24.589Z,180
2018-06-29T06:00:32.668Z,185
2018-06-29T06:01:40.728Z,145
2018-06-29T06:02:48.807Z,165
2018-06-29T06:03:56.834Z,195
2018-06-29T06:05:04.936Z,205
2018-06-29T06:06:12.996Z,215
2018-06-29T06:07:21.061Z,190
2018-06-29T06:08:29.123Z,170
2018-06-29T06:09:37.169Z,155
2018-06-29T06:10:45.257Z,150
2018-06-29T06:11:53.325Z,180
2018-06-29T06:13:01.393Z,200
2018-06-29T06:14:09.474Z,270
2018-06-29T06:15:17.501Z,235
2018-06-29T06:16:25.591Z,190
2018-06-29T06:17:33.672Z,200
2018-06-29T06:18:41.746Z,175
2018-06-29T06:19:49.837Z,165
2018-06-29T06:20:57.857Z,165
2018-06-29T06:22:05.942Z,210
2018-06-29T06:23:14.018Z,205
2018-06-29T06:24:22.079Z,210
2018-06-29T06:25:30.129Z,220
2018-06-29T06:26:38.205Z,255
2018-06-29T06:27:46.274Z,265
2018-06-29T06:28:54.345Z,280
2018-06-29T06:30:02.405Z,310
2018-06-29T06:31:10.492Z,265
2018-06-29T06:32:18.547Z,215
2018-06-29T06:33:26.610Z,280
2018-06-29T06:34:34.694Z,325
2018-06-29T06:35:42.753Z,340
2018-06-29T06:36:50.830Z,350
2018-06-29T06:37:58.876Z,340
2018-06-29T06:39:06.924Z,330
2018-06-29T06:40:15.014Z,320
2018-06-29T06:41:23.097Z,335
2018-06-29T06:42:31.169Z,375
2018-06-29T06:43:39.225Z,425
2018-06-29T06:44:47.357Z,540
2018-06-29T06:45:55.377Z,585
2018-06-29T06:47:03.486Z,615
2018-06-29T06:48:11.512Z,625
2018-06-29T06:49:19.563Z,600
2018-06-29T06:50:27.612Z,550
2018-06-29T06:51:35.708Z,575
2018-06-29T06:52:43.784Z,575
2018-06-29T06:53:51.842Z,545
2018-06-29T06:54:59.917Z,490
2018-06-29T06:56:07.978Z,555
2018-06-29T06:57:16.062Z,600
2018-06-29T06:58:24.124Z,600
2018-06-29T06:59:32.266Z,510
2018-06-29T07:00:40.257Z,455
2018-06-29T07:01:48.328Z,425
2018-06-29T07:02:56.394Z,405
2018-06-29T07:04:04.481Z,400
2018-06-29T07:05:12.554Z,390
2018-06-29T07:06:20.608Z,385
2018-06-29T07:07:28.684Z,375
2018-06-29T07:08:36.745Z,420
2018-06-29T07:09:44.831Z,475
2018-06-29T07:10:52.890Z,535
2018-06-29T07:12:00.964Z,620
2018-06-29T07:13:09.036Z,660
2018-06-29T07:14:17.071Z,630
2018-06-29T07:15:25.174Z,670
2018-06-29T07:16:33.255Z,625
2018-06-29T07:17:41.310Z,540
2018-06-29T07:18:49.376Z,565
2018-06-29T07:19:57.426Z,630
2018-06-29T07:21:05.510Z,675
2018-06-29T07:22:13.585Z,765
2018-06-29T07:23:21.653Z,740
2018-06-29T07:24:29.739Z,825
2018-06-29T07:25:37.792Z,975
2018-06-29T07:26:45.879Z,935
2018-06-29T07:27:53.944Z,905
2018-06-29T07:29:02.008Z,910
2018-06-29T07:30:10.092Z,840
2018-06-29T07:31:18.166Z,855
2018-06-29T07:32:26.253Z,800
2018-06-29T07:33:34.302Z,790
2018-06-29T07:34:53.130Z,845
2018-06-29T07:35:53.065Z,810
2018-06-29T07:37:01.127Z,760
2018-06-29T07:38:15.453Z,990
2018-06-29T07:39:17.244Z,1025
2018-06-29T07:40:25.341Z,870
2018-06-29T07:41:33.435Z,1350
2018-06-29T07:42:41.473Z,1225
2018-06-29T07:43:49.535Z,1380
2018-06-29T07:44:57.594Z,1105
2018-06-29T07:46:05.696Z,715
2018-06-29T07:47:13.773Z,1810
2018-06-29T07:48:21.824Z,1930
2018-06-29T07:49:29.918Z,2005
2018-06-29T07:50:37.981Z,1335
2018-06-29T07:51:46.058Z,935
2018-06-29T07:52:54.191Z,1205
2018-06-29T07:54:02.218Z,1365
2018-06-29T07:55:10.287Z,1115
2018-06-29T07:56:18.375Z,1110
2018-06-29T07:57:26.432Z,740
2018-06-29T07:58:34.560Z,785
2018-06-29T07:59:42.579Z,440
2018-06-29T08:00:50.652Z,420
2018-06-29T08:01:58.715Z,260
2018-06-29T08:03:06.773Z,200
2018-06-29T08:04:14.881Z,185
2018-06-29T08:05:22.942Z,165
2018-06-29T08:06:31.017Z,190
2018-06-29T08:07:39.084Z,260
2018-06-29T08:08:47.159Z,250
2018-06-29T08:09:55.247Z,335
2018-06-29T08:11:03.309Z,310
2018-06-29T08:12:11.392Z,270
2018-06-29T08:13:19.464Z,265
2018-06-29T08:14:27.499Z,280
2018-06-29T08:15:35.608Z,360
2018-06-29T08:16:43.675Z,365
2018-06-29T08:17:51.737Z,545
2018-06-29T08:18:59.823Z,710
2018-06-29T08:20:07.887Z,835
2018-06-29T08:21:16.001Z,905
2018-06-29T08:22:24.038Z,780
2018-06-29T08:23:32.118Z,750
2018-06-29T08:24:40.180Z,890
2018-06-29T08:25:48.253Z,750
2018-06-29T08:26:56.330Z,760
2018-06-29T08:28:04.380Z,685
2018-06-29T08:29:12.468Z,660
2018-06-29T08:30:20.532Z,625
2018-06-29T08:31:28.606Z,760
2018-06-29T08:32:36.677Z,680
2018-06-29T08:33:44.746Z,655
2018-06-29T08:34:52.812Z,560
2018-06-29T08:36:00.911Z,475
2018-06-29T08:37:08.957Z,475
2018-06-29T08:38:17.010Z,390
2018-06-29T08:39:25.121Z,400
2018-06-29T08:40:33.207Z,440
2018-06-29T08:41:41.257Z,395
2018-06-29T08:42:49.321Z,490
2018-06-29T08:43:57.371Z,375
2018-06-29T08:45:05.474Z,385
2018-06-29T08:46:13.530Z,595
2018-06-29T08:47:21.620Z,580
2018-06-29T08:48:29.692Z,510
2018-06-29T08:49:37.816Z,635
2018-06-29T08:50:45.826Z,585
2018-06-29T08:51:53.897Z,550
2018-06-29T08:53:01.977Z,600
2018-06-29T08:54:10.042Z,570
2018-06-29T08:55:18.104Z,765
2018-06-29T08:56:26.187Z,820
2018-06-29T08:57:34.246Z,635
2018-06-29T08:58:42.379Z,700
2018-06-29T08:59:50.411Z,670
2018-06-29T09:00:58.473Z,725
2018-06-29T09:02:06.555Z,700
2018-06-29T09:03:14.629Z,795
2018-06-29T09:04:22.688Z,835
2018-06-29T09:05:30.761Z,760
2018-06-29T09:06:38.831Z,720
2018-06-29T09:07:46.907Z,730
2018-06-29T09:08:54.988Z,570
2018-06-29T09:10:03.061Z,565
2018-06-29T09:11:11.123Z,690
2018-06-29T09:12:19.197Z,1060
2018-06-29T09:13:27.252Z,1060
2018-06-29T09:14:35.353Z,670
2018-06-29T09:15:43.408Z,650
2018-06-29T09:16:51.489Z,575
2018-06-29T09:17:59.567Z,560
2018-06-29T09:19:07.650Z,465
2018-06-29T09:20:15.708Z,450
2018-06-29T09:21:23.774Z,420
2018-06-29T09:22:31.846Z,430
2018-06-29T09:23:39.923Z,590
2018-06-29T09:24:47.982Z,485
2018-06-29T09:25:56.059Z,440
2018-06-29T09:27:04.133Z,470
2018-06-29T09:28:12.213Z,475
2018-06-29T09:29:20.288Z,705
2018-06-29T09:30:28.374Z,605
2018-06-29T09:31:36.424Z,520
2018-06-29T09:32:44.493Z,550
2018-06-29T09:33:52.560Z,665
2018-06-29T09:35:00.646Z,635
2018-06-29T09:36:08.709Z,515
2018-06-29T09:37:16.778Z,505
2018-06-29T09:38:24.856Z,395
2018-06-29T09:39:32.929Z,365
2018-06-29T09:40:40.987Z,450
2018-06-29T09:41:49.075Z,510
2018-06-29T09:42:57.113Z,740
2018-06-29T09:44:05.220Z,905
2018-06-29T09:45:13.291Z,955
2018-06-29T09:46:21.345Z,1090
2018-06-29T09:47:29.427Z,1065
2018-06-29T09:48:37.471Z,1065
2018-06-29T09:49:45.588Z,1080
2018-06-29T09:50:53.643Z,1020
2018-06-29T09:52:01.724Z,950
2018-06-29T09:53:09.838Z,820
2018-06-29T09:54:17.854Z,760
2018-06-29T09:55:25.946Z,955
2018-06-29T09:56:34.007Z,930
2018-06-29T09:57:42.091Z,990
2018-06-29T09:58:50.156Z,825
2018-06-29T09:59:58.224Z,710
2018-06-29T10:01:06.375Z,735
2018-06-29T10:02:14.383Z,970
2018-06-29T10:03:22.457Z,940
2018-06-29T10:04:30.513Z,910
2018-06-29T10:05:38.594Z,980
2018-06-29T10:06:46.656Z,640
2018-06-29T10:07:54.740Z,770
2018-06-29T10:09:02.812Z,840
2018-06-29T10:10:10.875Z,580
2018-06-29T10:11:18.962Z,500
2018-06-29T10:12:27.053Z,660
2018-06-29T10:13:35.105Z,925
2018-06-29T10:14:43.185Z,690
2018-06-29T10:15:51.256Z,785
2018-06-29T10:16:59.329Z,945
2018-06-29T10:18:07.378Z,845
2018-06-29T10:19:15.477Z,675
2018-06-29T10:20:23.558Z,710
2018-06-29T10:21:31.620Z,730
2018-06-29T10:22:39.692Z,785
2018-06-29T10:23:47.763Z,890
2018-06-29T10:24:55.847Z,1045
2018-06-29T10:26:03.933Z,825
2018-06-29T10:27:12.034Z,775
2018-06-29T10:28:20.068Z,970
2018-06-29T10:29:28.149Z,715
2018-06-29T10:30:36.197Z,650
2018-06-29T10:31:44.275Z,890
2018-06-29T10:32:52.355Z,1125
2018-06-29T10:34:00.434Z,1020
2018-06-29T10:35:08.496Z,1020
2018-06-29T10:36:16.577Z,985
2018-06-29T10:37:24.657Z,1045
2018-06-29T10:38:32.730Z,870
2018-06-29T10:39:40.801Z,750
2018-06-29T10:40:48.897Z,740
2018-06-29T10:41:56.935Z,715
2018-06-29T10:43:05.046Z,920
2018-06-29T10:44:13.156Z,980
2018-06-29T10:45:21.191Z,750
2018-06-29T10:46:29.254Z,800
2018-06-29T10:47:37.309Z,860
2018-06-29T10:48:45.404Z,835
2018-06-29T10:49:53.479Z,645
2018-06-29T10:51:01.545Z,835
2018-06-29T10:52:09.630Z,765
2018-06-29T10:53:17.686Z,830
2018-06-29T10:54:25.788Z,795
2018-06-29T10:55:33.858Z,865
2018-06-29T10:56:41.933Z,775
2018-06-29T10:57:49.995Z,975
2018-06-29T10:58:58.082Z,620
2018-06-29T11:00:06.148Z,865
2018-06-29T11:01:14.213Z,745
2018-06-29T11:02:22.306Z,740
2018-06-29T11:03:30.359Z,690
2018-06-29T11:04:38.443Z,740
2018-06-29T11:05:46.522Z,800
2018-06-29T11:06:54.581Z,630
2018-06-29T11:08:02.671Z,590
2018-06-29T11:09:10.742Z,565
2018-06-29T11:10:18.817Z,870
2018-06-29T11:11:26.859Z,840
2018-06-29T11:12:34.963Z,900
2018-06-29T11:13:43.032Z,745
2018-06-29T11:14:51.098Z,650
2018-06-29T11:15:59.179Z,735
2018-06-29T11:17:07.222Z,755
2018-06-29T11:18:15.326Z,665
2018-06-29T11:19:23.401Z,675
2018-06-29T11:20:31.470Z,735
2018-06-29T11:21:39.561Z,755
2018-06-29T11:22:47.615Z,555
2018-06-29T11:23:55.696Z,590
2018-06-29T11:25:03.751Z,575
2018-06-29T11:26:11.832Z,510
2018-06-29T11:27:19.895Z,500
2018-06-29T11:28:27.981Z,515
2018-06-29T11:29:36.059Z,550
2018-06-29T11:30:44.141Z,500
2018-06-29T11:31:52.226Z,420
2018-06-29T11:33:00.279Z,475
2018-06-29T11:34:08.353Z,595
2018-06-29T11:35:16.430Z,555
2018-06-29T11:36:24.504Z,645
2018-06-29T11:37:32.584Z,635
2018-06-29T11:38:40.639Z,675
2018-06-29T11:39:48.717Z,645
2018-06-29T11:40:56.774Z,465
2018-06-29T11:42:04.878Z,620
2018-06-29T11:43:12.951Z,705
2018-06-29T11:44:21.024Z,700
2018-06-29T11:45:29.103Z,555
2018-06-29T11:46:37.151Z,525
2018-06-29T11:47:45.246Z,555
2018-06-29T11:48:53.329Z,570
2018-06-29T11:50:01.393Z,545
2018-06-29T11:51:09.490Z,575
2018-06-29T11:52:17.510Z,505
2018-06-29T11:53:25.624Z,415
2018-06-29T11:54:33.691Z,495
2018-06-29T11:55:41.781Z,360
2018-06-29T11:56:49.854Z,320
2018-06-29T11:57:57.921Z,325
2018-06-29T11:59:05.996Z,330
2018-06-29T12:00:14.072Z,310
2018-06-29T12:01:22.125Z,335
2018-06-29T12:02:30.222Z,455
2018-06-29T12:03:38.281Z,675
2018-06-29T12:04:46.372Z,585
2018-06-29T12:05:54.426Z,415
2018-06-29T12:07:02.509Z,460
2018-06-29T12:08:10.574Z,375
2018-06-29T12:09:18.652Z,360
2018-06-29T12:10:26.733Z,370
2018-06-29T12:11:34.797Z,465
2018-06-29T12:12:42.863Z,550
2018-06-29T12:13:50.940Z,535
2018-06-29T12:14:59.098Z,505
2018-06-29T12:16:07.061Z,555
2018-06-29T12:17:15.160Z,555
2018-06-29T12:18:23.238Z,650
2018-06-29T12:19:31.296Z,600
2018-06-29T12:20:39.397Z,665
2018-06-29T12:21:47.432Z,745
2018-06-29T12:22:55.582Z,570
2018-06-29T12:24:03.605Z,550
2018-06-29T12:25:11.671Z,540
2018-06-29T12:26:19.741Z,535
2018-06-29T12:27:27.812Z,615
2018-06-29T12:28:35.890Z,565
2018-06-29T12:29:43.972Z,500
2018-06-29T12:30:52.050Z,405
2018-06-29T12:32:00.104Z,470
2018-06-29T12:33:08.186Z,365
2018-06-29T12:34:16.250Z,435
2018-06-29T12:35:24.328Z,320
2018-06-29T12:36:32.405Z,330
2018-06-29T12:37:40.477Z,315
2018-06-29T12:38:48.558Z,310
2018-06-29T12:39:56.629Z,320
2018-06-29T12:41:04.694Z,320
2018-06-29T12:42:12.771Z,320
2018-06-29T12:43:20.849Z,310
2018-06-29T12:44:28.916Z,295
2018-06-29T12:45:36.966Z,300
2018-06-29T12:46:45.054Z,345
2018-06-29T12:47:53.136Z,355
2018-06-29T12:49:01.215Z,320
2018-06-29T12:50:09.291Z,320
2018-06-29T12:51:17.322Z,310
2018-06-29T12:52:25.422Z,340
2018-06-29T12:53:33.502Z,410
2018-06-29T12:54:41.583Z,490
2018-06-29T12:55:49.673Z,390
2018-06-29T12:56:57.701Z,290
2018-06-29T12:58:05.797Z,290
2018-06-29T12:59:13.874Z,305
2018-06-29T13:00:21.941Z,300
2018-06-29T13:01:30.027Z,295
2018-06-29T13:02:38.086Z,310
2018-06-29T13:03:46.151Z,335
2018-06-29T13:04:54.231Z,310
2018-06-29T13:06:02.297Z,270
2018-06-29T13:07:10.387Z,285
2018-06-29T13:08:18.452Z,345
2018-06-29T13:09:26.522Z,380
2018-06-29T13:10:34.600Z,370
2018-06-29T13:11:42.669Z,265
2018-06-29T13:12:50.735Z,295
2018-06-29T13:13:58.833Z,310
2018-06-29T13:15:06.869Z,310
2018-06-29T13:16:14.950Z,295
2018-06-29T13:17:23.042Z,290
2018-06-29T13:18:31.118Z,300
2018-06-29T13:19:39.172Z,300
2018-06-29T13:20:47.225Z,320
2018-06-29T13:21:55.338Z,345
2018-06-29T13:23:03.397Z,415
2018-06-29T13:24:11.469Z,425
2018-06-29T13:25:19.730Z,335
2018-06-29T13:26:27.591Z,450
2018-06-29T13:27:35.695Z,390
2018-06-29T13:28:43.761Z,360
2018-06-29T13:29:51.832Z,420
2018-06-29T13:30:59.934Z,540
2018-06-29T13:32:07.980Z,495
2018-06-29T13:33:16.053Z,470
2018-06-29T13:34:24.111Z,555
2018-06-29T13:35:32.207Z,525
2018-06-29T13:36:40.274Z,505
2018-06-29T13:37:48.350Z,435
2018-06-29T13:38:56.415Z,435
2018-06-29T13:40:04.503Z,505
2018-06-29T13:41:12.583Z,440
2018-06-29T13:42:20.638Z,335
2018-06-29T13:43:28.713Z,335
2018-06-29T13:44:36.788Z,445
2018-06-29T13:45:44.858Z,470
2018-06-29T13:46:52.945Z,415
2018-06-29T13:48:01.008Z,340
2018-06-29T13:49:09.091Z,290
2018-06-29T13:50:17.120Z,310
2018-06-29T13:51:25.221Z,360
2018-06-29T13:52:33.321Z,365
2018-06-29T13:53:41.388Z,325
2018-06-29T13:54:49.473Z,310
2018-06-29T13:55:57.504Z,345
2018-06-29T13:57:05.598Z,340
2018-06-29T13:58:13.684Z,330
2018-06-29T13:59:21.741Z,295
2018-06-29T14:00:29.815Z,325
2018-06-29T14:01:37.888Z,340
2018-06-29T14:02:45.972Z,300
2018-06-29T14:03:54.038Z,375
2018-06-29T14:05:02.095Z,435
2018-06-29T14:06:10.190Z,365
2018-06-29T14:07:18.255Z,370
2018-06-29T14:08:26.330Z,415
2018-06-29T14:09:34.411Z,450
2018-06-29T14:10:42.530Z,475
2018-06-29T14:11:50.555Z,435
2018-06-29T14:12:58.671Z,340
2018-06-29T14:14:06.687Z,270
2018-06-29T14:15:14.772Z,295
2018-06-29T14:16:22.860Z,305
2018-06-29T14:17:30.918Z,320
2018-06-29T14:18:38.973Z,315
2018-06-29T14:19:47.025Z,245
2018-06-29T14:20:55.133Z,255
2018-06-29T14:22:03.197Z,255
2018-06-29T14:23:11.290Z,245
2018-06-29T14:24:19.345Z,230
2018-06-29T14:25:27.398Z,225
2018-06-29T14:26:35.497Z,225
2018-06-29T14:27:43.569Z,225
2018-06-29T14:28:51.657Z,235
2018-06-29T14:29:59.721Z,230
2018-06-29T14:31:07.789Z,220
2018-06-29T14:32:15.850Z,220
2018-06-29T14:33:23.934Z,220
2018-06-29T14:34:32.059Z,220
2018-06-29T14:35:40.065Z,220
2018-06-29T14:36:48.140Z,220
2018-06-29T14:37:56.216Z,210
2018-06-29T14:39:04.287Z,215
2018-06-29T14:40:12.366Z,215
2018-06-29T14:41:20.429Z,220
2018-06-29T14:42:28.562Z,210
2018-06-29T14:43:36.586Z,205
2018-06-29T14:44:44.654Z,205
2018-06-29T14:45:52.719Z,205
2018-06-29T14:47:00.805Z,205
2018-06-29T14:48:08.894Z,205
2018-06-29T14:49:16.910Z,205
2018-06-29T14:50:25.007Z,205
2018-06-29T14:51:33.079Z,205
2018-06-29T14:52:41.169Z,210
2018-06-29T14:53:49.277Z,215
2018-06-29T14:54:57.271Z,220
2018-06-29T14:56:05.361Z,240
2018-06-29T14:57:13.446Z,270
2018-06-29T14:58:21.514Z,245
2018-06-29T14:59:29.598Z,280
2018-06-29T15:00:37.646Z,350
2018-06-29T15:01:45.738Z,295
2018-06-29T15:02:53.804Z,255
2018-06-29T15:04:01.921Z,220
2018-06-29T15:05:09.963Z,225
2018-06-29T15:06:18.022Z,245
2018-06-29T15:07:26.084Z,385
2018-06-29T15:08:34.186Z,375
2018-06-29T15:09:42.239Z,315
2018-06-29T15:10:50.315Z,295
2018-06-29T15:11:58.395Z,255
2018-06-29T15:13:06.459Z,315
2018-06-29T15:14:14.532Z,265
2018-06-29T15:15:22.610Z,245
2018-06-29T15:16:30.679Z,275
2018-06-29T15:17:38.751Z,310
2018-06-29T15:18:46.796Z,315
2018-06-29T15:19:54.902Z,405
2018-06-29T15:21:02.961Z,455
2018-06-29T15:22:11.036Z,310
2018-06-29T15:23:19.104Z,310
2018-06-29T15:24:27.159Z,295
2018-06-29T15:25:35.259Z,250
2018-06-29T15:26:43.325Z,215
2018-06-29T15:27:51.407Z,240
2018-06-29T15:28:59.528Z,335
2018-06-29T15:30:07.563Z,425
2018-06-29T15:31:15.681Z,320
2018-06-29T15:32:23.691Z,275
2018-06-29T15:33:31.780Z,280
2018-06-29T15:34:39.838Z,300
2018-06-29T15:35:47.955Z,270
2018-06-29T15:36:55.981Z,280
2018-06-29T15:38:04.056Z,215
2018-06-29T15:39:12.129Z,180
2018-06-29T15:40:20.198Z,175
2018-06-29T15:41:28.265Z,190
2018-06-29T15:42:36.364Z,190
2018-06-29T15:43:44.418Z,195
2018-06-29T15:44:52.588Z,195
2018-06-29T15:46:00.545Z,195
2018-06-29T15:47:08.648Z,205
2018-06-29T15:48:16.701Z,235
2018-06-29T15:49:24.782Z,220
2018-06-29T15:50:32.840Z,210
2018-06-29T15:51:40.929Z,220
2018-06-29T15:52:48.988Z,270
2018-06-29T15:53:57.036Z,235
2018-06-29T15:55:05.131Z,195